Time;durP1;ratioP1;P1;durP2;ratioP2;P2;SDS_P1;SDS_P2;PMS_P1;PMS_P2;Temp;Humidity;BMP_temperature;BMP_pressure;BME280_temperature;BME280_humidity;BME280_pressure;Samples;Min_cycle;Max_cycle;Signal;HPM_P1;HPM_P2
2022/04/23 00:00:37;;;;;;;6.25;3.70;;;;;;;22.46;50.94;97796.28;1787889;78;25612;-89
2022/04/23 00:03:03;;;;;;;7.08;4.12;;;;;;;22.47;50.92;97788.09;1773198;78;27612;-89
2022/04/23 00:05:29;;;;;;;6.78;3.90;;;;;;;22.47;50.94;97798.66;1780551;78;25738;-89
2022/04/23 00:07:55;;;;;;;6.17;3.40;;;;;;;22.48;50.93;97792.48;1787461;80;25600;-89
2022/04/23 00:10:22;;;;;;;5.85;3.35;;;;;;;22.47;50.94;97793.67;1787311;80;26631;-89
2022/04/23 00:12:48;;;;;;;4.92;3.60;;;;;;;22.49;50.90;97796.84;1788247;78;25602;-89
2022/04/23 00:15:14;;;;;;;6.08;3.80;;;;;;;22.50;50.89;97803.41;1788994;78;27382;-89
2022/04/23 00:17:40;;;;;;;5.45;3.50;;;;;;;22.52;50.90;97797.41;1788805;80;25597;-90
2022/04/23 00:20:07;;;;;;;6.05;3.95;;;;;;;22.52;50.88;97796.02;1787581;78;25483;-89
2022/04/23 00:22:38;;;;;;;5.30;3.60;;;;;;;22.52;50.86;97798.22;1788046;78;26520;-90
2022/04/23 00:25:05;;;;;;;6.05;3.80;;;;;;;22.53;50.85;97798.39;1789392;80;25451;-89
2022/04/23 00:27:31;;;;;;;6.25;3.95;;;;;;;22.55;50.85;97799.38;1787216;78;27532;-89
2022/04/23 00:29:57;;;;;;;6.00;3.67;;;;;;;22.54;50.86;97796.41;1787494;80;25781;-89
2022/04/23 00:32:22;;;;;;;6.15;3.52;;;;;;;22.55;50.85;97791.80;1785347;78;25443;-89
2022/04/23 00:34:49;;;;;;;5.55;3.80;;;;;;;22.55;50.85;97791.00;1788729;78;26416;-89
2022/04/23 00:37:15;;;;;;;5.60;3.33;;;;;;;22.57;50.86;97787.20;1786530;78;25597;-89
2022/04/23 00:39:40;;;;;;;5.53;3.62;;;;;;;22.56;50.83;97788.39;1772406;79;27460;-89
2022/04/23 00:42:09;;;;;;;6.67;3.37;;;;;;;22.58;50.84;97785.17;1789520;80;25427;-90
2022/04/23 00:44:37;;;;;;;5.95;3.67;;;;;;;22.58;50.86;97790.77;1748205;80;25657;-89
2022/04/23 00:47:04;;;;;;;5.03;3.17;;;;;;;22.58;50.84;97783.78;1742833;80;26595;-89
2022/04/23 00:49:31;;;;;;;5.33;3.55;;;;;;;22.57;50.84;97781.61;1759898;81;25634;-89
2022/04/23 00:51:58;;;;;;;5.83;3.65;;;;;;;22.58;50.86;97785.17;1760023;81;28385;-89
2022/04/23 00:54:24;;;;;;;5.20;3.65;;;;;;;22.58;50.88;97783.78;1733962;81;25904;-89
2022/04/23 00:56:50;;;;;;;5.37;3.25;;;;;;;22.58;50.87;97785.17;1760086;81;25690;-89
2022/04/23 00:59:16;;;;;;;5.72;3.77;;;;;;;22.58;50.86;97788.80;1761016;80;25693;-89
2022/04/23 01:01:43;;;;;;;5.00;3.50;;;;;;;22.59;50.87;97785.41;1741669;80;25717;-89
2022/04/23 01:04:12;;;;;;;4.83;3.45;;;;;;;22.59;50.88;97783.39;1790552;80;28188;-89
2022/04/23 01:06:38;;;;;;;4.72;3.40;;;;;;;22.60;50.88;97784.20;1789668;80;25618;-89
2022/04/23 01:09:07;;;;;;;5.33;3.33;;;;;;;22.60;50.88;97782.20;1791411;80;25441;-89
2022/04/23 01:11:36;;;;;;;4.22;3.15;;;;;;;22.62;50.87;97780.39;1788599;80;25743;-89
2022/04/23 01:14:02;;;;;;;5.47;3.50;;;;;;;22.61;50.87;97780.98;1789865;80;25412;-89
2022/04/23 01:16:29;;;;;;;5.45;3.47;;;;;;;22.63;50.86;97784.76;1777900;80;27363;-89
2022/04/23 01:18:55;;;;;;;5.00;3.30;;;;;;;22.61;50.88;97782.38;1789526;80;25701;-89
2022/04/23 01:21:21;;;;;;;5.33;3.60;;;;;;;22.62;50.88;97785.36;1758498;81;25583;-89
2022/04/23 01:23:52;;;;;;;4.95;3.12;;;;;;;22.63;50.86;97779.98;1760921;80;26288;-89
2022/04/23 01:26:26;;;;;;;5.00;3.42;;;;;;;22.64;50.88;97784.34;1759676;81;25672;-89
2022/04/23 01:28:54;;;;;;;5.45;3.52;;;;;;;22.64;50.86;97783.54;1757191;80;27411;-89
2022/04/23 01:31:20;;;;;;;5.53;3.10;;;;;;;22.65;50.90;97780.95;1757962;81;25559;-89
2022/04/23 01:33:46;;;;;;;5.40;3.27;;;;;;;22.65;50.89;97774.75;1758949;81;25401;-89
2022/04/23 01:36:14;;;;;;;5.85;3.30;;;;;;;22.65;50.91;97775.37;1758465;81;25726;-89
2022/04/23 01:38:42;;;;;;;5.35;3.45;;;;;;;22.66;50.90;97774.16;1765118;80;25685;-89
2022/04/23 01:41:08;;;;;;;4.80;3.15;;;;;;;22.67;50.90;97780.72;1797689;78;27450;-89
2022/04/23 01:43:35;;;;;;;5.12;3.40;;;;;;;22.66;50.91;97777.75;1812741;79;25398;-89
2022/04/23 01:46:00;;;;;;;5.50;3.65;;;;;;;22.66;50.91;97779.73;1815865;79;25710;-89
2022/04/23 01:48:26;;;;;;;4.92;3.30;;;;;;;22.66;50.92;97771.36;1805145;79;25747;-89
2022/04/23 01:50:53;;;;;;;4.83;3.55;;;;;;;22.67;50.94;97772.34;1737995;82;25602;-89
2022/04/23 01:53:21;;;;;;;4.60;3.27;;;;;;;22.66;50.94;97781.94;1790976;78;27503;-89
2022/04/23 01:55:47;;;;;;;4.60;3.25;;;;;;;22.67;50.97;97781.31;1799055;79;25954;-89
2022/04/23 01:58:12;;;;;;;4.83;3.33;;;;;;;22.69;50.96;97785.26;1788272;79;25423;-89
2022/04/23 02:00:39;;;;;;;5.15;3.60;;;;;;;22.68;50.96;97786.48;1786017;79;25936;-89
2022/04/23 02:03:06;;;;;;;5.20;3.52;;;;;;;22.71;50.95;97784.84;1767559;81;25594;-89
2022/04/23 02:05:32;;;;;;;3.83;2.98;;;;;;;22.72;50.96;97787.04;1737563;81;28402;-89
2022/04/23 02:07:58;;;;;;;4.37;3.05;;;;;;;22.72;50.98;97785.64;1769991;81;25893;-89
2022/04/23 02:10:23;;;;;;;5.90;3.47;;;;;;;22.72;50.98;97786.45;1770156;81;25725;-89
2022/04/23 02:12:49;;;;;;;5.17;3.35;;;;;;;22.73;50.98;97792.80;1770998;78;25748;-89
2022/04/23 02:15:17;;;;;;;5.17;3.47;;;;;;;22.73;50.98;97785.83;1770139;81;25609;-89
2022/04/23 02:17:49;;;;;;;4.80;3.10;;;;;;;22.74;51.00;97789.59;1769794;81;27423;-88
2022/04/23 02:20:16;;;;;;;4.50;3.20;;;;;;;22.76;50.97;97787.19;1782397;78;25412;-89
2022/04/23 02:22:43;;;;;;;4.58;3.22;;;;;;;22.76;50.96;97793.37;1799988;79;25698;-88
2022/04/23 02:25:09;;;;;;;5.50;3.30;;;;;;;22.77;50.98;97801.33;1796401;78;25572;-89
2022/04/23 02:27:48;;;;;;;5.37;3.25;;;;;;;22.77;50.97;97801.33;1769954;81;25746;-89
2022/04/23 02:30:16;;;;;;;5.30;3.22;;;;;;;22.77;50.97;97794.34;1770295;79;27543;-89
2022/04/23 02:32:44;;;;;;;4.35;3.05;;;;;;;22.78;50.98;97800.14;1794411;78;25723;-89
2022/04/23 02:35:12;;;;;;;4.55;3.00;;;;;;;22.79;50.99;97800.31;1801673;79;25648;-89
2022/04/23 02:37:40;;;;;;;4.45;3.30;;;;;;;22.79;51.01;97804.50;1801707;79;25671;-89
2022/04/23 02:40:08;;;;;;;4.35;2.92;;;;;;;22.81;50.99;97804.09;1791187;79;25456;-89
2022/04/23 02:42:37;;;;;;;4.15;3.02;;;;;;;22.82;50.99;97804.27;1791259;80;28475;-89
2022/04/23 02:45:04;;;;;;;6.67;3.75;;;;;;;22.83;50.97;97811.45;1790872;80;25572;-89
2022/04/23 02:47:43;;;;;;;4.30;3.10;;;;;;;22.83;50.98;97805.86;1761603;80;25677;-89
2022/04/23 02:50:13;;;;;;;4.35;3.08;;;;;;;22.84;50.98;97815.02;1766073;80;26617;-89
2022/04/23 02:52:43;;;;;;;4.92;3.17;;;;;;;22.85;50.98;97817.39;1789331;80;25725;-89
2022/04/23 02:55:13;;;;;;;4.67;3.37;;;;;;;22.85;50.98;97815.23;1790064;80;27668;-89
2022/04/23 02:57:42;;;;;;;4.67;3.10;;;;;;;22.86;50.99;97817.60;1791263;80;25769;-89
2022/04/23 03:00:10;;;;;;;3.63;2.80;;;;;;;22.86;50.98;97809.22;1762250;80;25715;-89
2022/04/23 03:02:37;;;;;;;4.65;3.00;;;;;;;22.88;50.99;97818.58;1790228;80;26633;-89
2022/04/23 03:05:11;;;;;;;3.87;2.95;;;;;;;22.88;50.97;97819.34;1786229;80;25636;-89
2022/04/23 03:07:39;;;;;;;3.98;3.10;;;;;;;22.88;51.00;97816.55;1740833;81;27405;-89
2022/04/23 03:10:09;;;;;;;4.33;2.90;;;;;;;22.88;51.00;97816.55;1765242;81;25718;-89
2022/04/23 03:12:38;;;;;;;3.95;3.00;;;;;;;22.90;51.01;97821.73;1765693;81;25663;-88
2022/04/23 03:15:11;;;;;;;4.15;3.00;;;;;;;22.90;51.02;97821.73;1765913;81;25727;-89
2022/04/23 03:17:37;;;;;;;4.60;3.30;;;;;;;22.90;51.01;97816.14;1766379;81;25702;-89
2022/04/23 03:20:05;;;;;;;3.55;2.80;;;;;;;22.90;51.01;97815.55;1753115;81;27363;-89
2022/04/23 03:22:31;;;;;;;4.85;3.20;;;;;;;22.90;51.00;97814.15;1735756;82;25774;-89
2022/04/23 03:24:56;;;;;;;3.72;3.00;;;;;;;22.92;51.01;97823.51;1752221;81;25642;-89
2022/04/23 03:27:22;;;;;;;3.90;3.10;;;;;;;22.93;51.02;97822.29;1745916;81;25756;-89
2022/04/23 03:29:48;;;;;;;4.70;3.10;;;;;;;22.93;51.02;97826.48;1758141;81;25491;-89
2022/04/23 03:32:14;;;;;;;4.53;3.20;;;;;;;22.93;51.01;97828.67;1743953;81;27459;-89
2022/04/23 03:34:40;;;;;;;4.25;3.12;;;;;;;22.93;51.02;97829.27;1735726;82;25659;-89
2022/04/23 03:37:06;;;;;;;5.85;3.25;;;;;;;22.93;51.02;97831.47;1735882;82;26328;-89
2022/04/23 03:39:33;;;;;;;4.80;3.27;;;;;;;22.94;51.01;97837.23;1766829;77;25631;-89
2022/04/23 03:42:01;;;;;;;4.78;3.40;;;;;;;22.94;51.03;97842.82;1817802;78;25765;-89
2022/04/23 03:44:27;;;;;;;4.45;3.17;;;;;;;22.95;51.03;97845.02;1817324;78;26802;-89
2022/04/23 03:46:52;;;;;;;4.03;3.15;;;;;;;22.96;51.03;97849.98;1816677;78;25758;-89
2022/04/23 03:49:18;;;;;;;4.25;3.05;;;;;;;22.96;51.02;97849.39;1811471;78;25813;-89
2022/04/23 03:51:45;;;;;;;3.90;3.00;;;;;;;22.95;51.03;97856.20;1817822;78;25734;-89
2022/04/23 03:54:11;;;;;;;3.67;2.75;;;;;;;22.96;51.03;97861.16;1816254;79;25759;-89
2022/04/23 03:56:37;;;;;;;5.05;3.27;;;;;;;22.96;51.04;97866.15;1817753;78;27469;-89
2022/04/23 03:59:03;;;;;;;4.72;3.10;;;;;;;22.96;51.04;97860.56;1817786;78;25592;-89
2022/04/23 04:01:30;;;;;;;4.97;3.47;;;;;;;22.97;51.04;97864.93;1797816;78;25723;-89
2022/04/23 04:03:56;;;;;;;4.28;3.02;;;;;;;22.97;51.05;97870.52;1785140;80;26554;-89
2022/04/23 04:06:21;;;;;;;5.12;3.22;;;;;;;22.97;51.05;97867.73;1785527;80;25751;-89
2022/04/23 04:08:50;;;;;;;4.75;3.42;;;;;;;22.97;51.03;97869.13;1788312;78;26920;-89
2022/04/23 04:11:15;;;;;;;4.05;3.10;;;;;;;22.96;51.04;97866.15;1787450;79;25822;-89
2022/04/23 04:13:41;;;;;;;6.00;3.40;;;;;;;22.96;51.06;97861.96;1817935;78;25637;-90
2022/04/23 04:16:07;;;;;;;4.90;3.45;;;;;;;22.99;51.05;97870.10;1811099;78;25779;-89
2022/04/23 04:18:34;;;;;;;5.03;3.20;;;;;;;22.97;51.04;97871.91;1803823;78;25658;-89
2022/04/23 04:21:00;;;;;;;4.65;3.08;;;;;;;22.98;51.05;97877.71;1807254;78;27387;-89
2022/04/23 04:23:26;;;;;;;5.25;3.52;;;;;;;22.99;51.03;97874.30;1798267;78;25427;-88
2022/04/23 04:25:53;;;;;;;5.50;3.47;;;;;;;22.98;51.03;97869.92;1804999;78;25580;-90
2022/04/23 04:28:20;;;;;;;4.30;3.30;;;;;;;23.00;51.04;97874.50;1801427;78;25747;-89
2022/04/23 04:33:32;;;;;;;4.20;3.30;;;;;;;23.00;51.03;97873.87;1796937;78;25646;-89
2022/04/23 04:35:58;;;;;;;4.72;3.20;;;;;;;23.00;51.03;97875.27;1800417;78;25722;-89
2022/04/23 04:38:24;;;;;;;4.60;3.12;;;;;;;22.99;51.04;97873.70;1800213;78;25621;-89
2022/04/23 04:40:51;;;;;;;5.47;3.47;;;;;;;23.00;51.02;97876.67;1787240;79;26437;-89
2022/04/23 04:43:32;;;;;;;4.72;3.47;;;;;;;22.99;51.06;97878.48;1783372;80;25380;-89
2022/04/23 04:45:58;;;;;;;5.35;3.22;;;;;;;22.99;51.09;97874.30;1789028;80;27527;-89
2022/04/23 04:48:24;;;;;;;7.05;3.95;;;;;;;22.99;51.10;97875.69;1766473;81;25657;-88
2022/04/23 04:50:49;;;;;;;4.22;3.30;;;;;;;22.98;51.13;97871.32;1768293;81;25675;-89
2022/04/23 04:53:15;;;;;;;4.20;2.90;;;;;;;22.97;51.14;97876.11;1776980;80;25742;-89
2022/04/23 04:55:41;;;;;;;4.70;3.55;;;;;;;22.97;51.17;97876.73;1763952;79;25450;-89
2022/04/23 04:58:07;;;;;;;4.87;3.60;;;;;;;22.98;51.17;97877.71;1778762;79;27477;-89
2022/04/23 05:00:33;;;;;;;4.30;3.35;;;;;;;22.98;51.18;97877.71;1771661;80;25750;-89
2022/04/23 05:02:59;;;;;;;4.33;2.90;;;;;;;22.99;51.16;97884.07;1783111;80;25645;-89
2022/04/23 05:05:25;;;;;;;4.70;3.30;;;;;;;22.97;51.18;97885.88;1774067;79;25735;-89
2022/04/23 05:07:52;;;;;;;4.87;3.52;;;;;;;22.98;51.18;97890.28;1753086;79;25651;-89
2022/04/23 05:10:17;;;;;;;7.28;5.00;;;;;;;22.98;51.13;97883.30;1757870;79;27531;-89
2022/04/23 05:12:43;;;;;;;7.42;4.50;;;;;;;22.97;50.82;97887.91;1761545;79;25679;-89
2022/04/23 05:15:11;;;;;;;8.33;5.08;;;;;;;22.95;50.75;97881.34;1781259;79;25488;-87
2022/04/23 05:17:39;;;;;;;10.08;6.40;;;;;;;22.92;50.69;97878.78;1761360;79;25828;-90
2022/04/23 05:20:07;;;;;;;8.75;5.70;;;;;;;22.90;50.44;97883.98;1769353;79;25691;-89
2022/04/23 05:22:33;;;;;;;9.43;6.22;;;;;;;22.89;50.45;97894.98;1777398;79;27369;-89
2022/04/23 05:24:59;;;;;;;9.48;6.28;;;;;;;22.87;50.25;97893.20;1764464;79;25634;-89
2022/04/23 05:27:26;;;;;;;8.73;6.25;;;;;;;22.86;50.23;97890.22;1757500;79;25681;-89
2022/04/23 05:29:52;;;;;;;11.88;6.47;;;;;;;22.88;50.19;97888.41;1751884;80;25831;-89
2022/04/23 05:32:18;;;;;;;14.63;6.50;;;;;;;22.89;50.35;97894.17;1764984;79;25607;-90
2022/04/23 05:34:45;;;;;;;12.85;6.62;;;;;;;22.89;50.46;97893.58;1777187;79;27935;-89
2022/04/23 05:37:12;;;;;;;13.22;6.62;;;;;;;22.89;50.63;97892.78;1779691;79;25691;-89
2022/04/23 05:39:38;;;;;;;14.50;6.45;;;;;;;22.90;50.75;97895.16;1751899;81;25483;-89
2022/04/23 05:42:05;;;;;;;9.95;6.10;;;;;;;22.90;50.88;97896.55;1778282;79;25705;-89
2022/04/23 05:44:31;;;;;;;13.53;6.37;;;;;;;22.91;51.01;97894.56;1768028;79;25616;-89
2022/04/23 05:46:58;;;;;;;14.50;6.53;;;;;;;22.90;51.16;97892.95;1780882;79;27350;-90
2022/04/23 05:49:24;;;;;;;16.50;7.10;;;;;;;22.91;51.30;97895.33;1778483;79;25366;-89
2022/04/23 05:51:50;;;;;;;13.75;6.40;;;;;;;22.93;51.45;97896.31;1782615;79;25578;-90
2022/04/23 05:54:17;;;;;;;13.85;6.33;;;;;;;22.92;51.58;97891.95;1782306;80;25669;-89
2022/04/23 05:56:43;;;;;;;14.10;6.20;;;;;;;22.93;51.63;97897.13;1782485;80;25555;-89
2022/04/23 05:59:10;;;;;;;11.88;6.30;;;;;;;22.96;51.65;97898.88;1782605;80;28028;-89
2022/04/23 06:01:36;;;;;;;17.12;6.10;;;;;;;23.00;51.65;97895.45;1782490;80;25665;-89
2022/04/23 06:04:03;;;;;;;11.73;6.25;;;;;;;23.03;51.65;97898.81;1782025;80;26323;-89
2022/04/23 06:06:29;;;;;;;15.15;6.80;;;;;;;23.08;51.69;97901.12;1782323;80;26517;-89
2022/04/23 06:08:56;;;;;;;12.45;6.37;;;;;;;23.11;51.72;97903.09;1782442;80;25631;-89
2022/04/23 06:11:23;;;;;;;12.15;6.12;;;;;;;23.16;51.75;97899.04;1782165;80;27480;-89
2022/04/23 06:13:49;;;;;;;12.18;5.65;;;;;;;23.21;51.76;97900.58;1782406;80;25687;-89
2022/04/23 06:16:16;;;;;;;12.30;6.05;;;;;;;23.26;51.80;97907.12;1782422;80;25569;-90
2022/04/23 06:18:42;;;;;;;11.95;6.33;;;;;;;23.31;51.82;97902.44;1782441;80;25740;-90
2022/04/23 06:21:09;;;;;;;13.18;6.00;;;;;;;23.36;51.83;97901.98;1782093;80;25381;-90
2022/04/23 06:23:35;;;;;;;11.73;5.92;;;;;;;23.42;51.82;97902.33;1782474;80;27406;-90
2022/04/23 06:26:02;;;;;;;12.28;6.00;;;;;;;23.47;51.86;97904.67;1782346;80;25580;-89
2022/04/23 06:28:28;;;;;;;11.63;5.42;;;;;;;23.52;51.86;97900.62;1782493;80;25626;-89
2022/04/23 06:30:54;;;;;;;11.40;5.95;;;;;;;23.56;51.86;97905.55;1782425;80;25746;-89
2022/04/23 06:33:21;;;;;;;13.32;5.85;;;;;;;23.61;51.87;97905.09;1782498;80;25612;-89
2022/04/23 06:35:47;;;;;;;11.83;5.62;;;;;;;23.67;51.86;97906.20;1779059;80;27418;-89
2022/04/23 06:38:13;;;;;;;10.63;5.60;;;;;;;23.72;51.83;97913.33;1782097;80;26069;-91
2022/04/23 06:40:40;;;;;;;10.35;5.67;;;;;;;23.76;51.84;97907.66;1782199;80;25739;-90
2022/04/23 06:43:06;;;;;;;10.32;5.47;;;;;;;23.83;51.83;97913.77;1798604;79;25772;-90
2022/04/23 06:45:33;;;;;;;10.10;5.67;;;;;;;23.87;51.78;97908.91;1798658;79;25673;-90
2022/04/23 06:48:05;;;;;;;10.18;5.83;;;;;;;23.91;51.74;97908.23;1798501;79;27367;-90
2022/04/23 06:50:36;;;;;;;10.13;5.40;;;;;;;23.96;51.72;97912.56;1798248;79;25601;-90
2022/04/23 06:53:04;;;;;;;7.87;5.30;;;;;;;23.99;51.69;97910.32;1798434;79;25534;-90
2022/04/23 06:55:31;;;;;;;8.55;5.33;;;;;;;24.03;51.64;97907.65;1798780;79;25637;-89
2022/04/23 06:57:58;;;;;;;8.65;5.33;;;;;;;24.06;51.59;97902.60;1798810;79;25399;-90
2022/04/23 07:00:24;;;;;;;8.53;5.15;;;;;;;24.10;51.55;97905.36;1798822;79;28230;-90
2022/04/23 07:02:51;;;;;;;9.85;5.28;;;;;;;24.13;51.54;97901.70;1798663;79;25637;-89
2022/04/23 07:05:18;;;;;;;8.53;5.30;;;;;;;24.16;51.49;97902.29;1798813;79;25652;-90
2022/04/23 07:08:01;;;;;;;8.78;5.00;;;;;;;24.17;51.45;97899.66;1797575;79;25626;-89
2022/04/23 07:10:30;;;;;;;9.88;5.70;;;;;;;24.18;51.38;97899.84;1798849;79;25628;-90
2022/04/23 07:12:57;;;;;;;8.85;5.05;;;;;;;24.19;51.37;97897.84;1798953;79;27443;-90
2022/04/23 07:15:25;;;;;;;9.25;5.47;;;;;;;24.22;51.31;97894.79;1798586;79;25814;-89
2022/04/23 07:17:52;;;;;;;9.70;5.35;;;;;;;24.23;51.37;97899.96;1798871;79;25668;-90
2022/04/23 07:20:19;;;;;;;7.33;4.75;;;;;;;24.25;51.35;97900.34;1798823;79;26361;-90
2022/04/23 07:25:36;;;;;;;12.35;4.87;;;;;;;24.30;51.27;97899.06;1798396;79;25658;-90
2022/04/23 07:28:04;;;;;;;12.58;5.67;;;;;;;24.32;51.23;97900.81;1798207;79;25443;-89
2022/04/23 07:30:31;;;;;;;11.18;5.47;;;;;;;24.34;51.18;97891.98;1798799;79;25593;-89
2022/04/23 07:32:58;;;;;;;8.30;5.20;;;;;;;24.37;51.11;97897.53;1798665;79;25639;-90
2022/04/23 07:38:24;;;;;;;10.40;5.50;;;;;;;24.42;51.02;97893.45;1798381;79;25589;-90
2022/04/23 07:40:51;;;;;;;6.87;4.78;;;;;;;24.43;50.97;97892.23;1792638;79;25742;-89
2022/04/23 07:43:18;;;;;;;7.70;4.72;;;;;;;24.45;50.92;97902.41;1787471;80;25183;-90
2022/04/23 07:45:46;;;;;;;10.88;5.00;;;;;;;24.45;50.85;97895.40;1787421;80;25767;-91
2022/04/23 07:48:15;;;;;;;10.18;4.80;;;;;;;24.47;50.81;97897.17;1787172;80;25633;-93
2022/04/23 07:50:42;;;;;;;8.60;4.78;;;;;;;24.47;50.83;97892.17;1786869;79;27424;-92
2022/04/23 07:53:10;;;;;;;7.45;4.45;;;;;;;24.46;50.80;97894.17;1786879;80;25393;-91
2022/04/23 07:55:38;;;;;;;9.18;5.37;;;;;;;24.47;50.79;97886.58;1786983;80;25590;-92
2022/04/23 07:58:09;;;;;;;9.98;5.20;;;;;;;24.47;50.48;97884.58;1786961;80;25758;-90
2022/04/23 08:00:38;;;;;;;12.00;4.67;;;;;;;24.47;50.33;97897.77;1786864;80;25650;-91
2022/04/23 08:03:06;;;;;;;10.25;4.72;;;;;;;24.46;50.28;97885.00;1786892;79;27432;-91
2022/04/23 08:05:33;;;;;;;9.90;4.85;;;;;;;24.47;50.45;97890.17;1786864;80;25699;-91
2022/04/23 08:08:00;;;;;;;10.70;5.15;;;;;;;24.46;50.59;97889.20;1787132;80;25668;-91
2022/04/23 08:10:27;;;;;;;11.45;5.20;;;;;;;24.46;50.78;97894.17;1787391;80;25779;-91
2022/04/23 08:12:58;;;;;;;12.35;4.80;;;;;;;24.46;50.81;97886.40;1787194;80;25604;-91
2022/04/23 08:15:22;;;;;;;9.40;5.00;;;;;;;24.44;50.88;97882.00;1785190;79;25793;-91
2022/04/23 08:17:49;;;;;;;10.08;4.65;;;;;;;24.44;50.88;97886.83;1787083;80;26086;-89
2022/04/23 08:20:15;;;;;;;6.67;4.42;;;;;;;24.43;51.03;97879.63;1787203;80;25665;-90
2022/04/23 08:22:42;;;;;;;8.55;4.50;;;;;;;24.42;51.21;97879.45;1787186;80;25686;-90
2022/04/23 08:25:10;;;;;;;7.47;4.87;;;;;;;24.41;51.18;97882.08;1787313;80;25566;-90
2022/04/23 08:30:34;;;;;;;8.83;4.97;;;;;;;24.41;51.33;97887.05;1786978;80;28486;-90
2022/04/23 08:30:37;;;;;;;9.15;5.05;;;;;;;24.43;51.40;97881.83;1782489;80;25641;-90
2022/04/23 08:33:07;;;;;;;9.28;4.90;;;;;;;24.39;50.88;97874.11;1787075;80;25654;-91
2022/04/23 08:35:36;;;;;;;9.08;4.90;;;;;;;24.37;50.78;97872.33;1787301;80;25694;-90
2022/04/23 08:38:04;;;;;;;8.10;4.97;;;;;;;24.37;50.85;97869.53;1786225;80;25744;-90
2022/04/23 08:40:44;;;;;;;8.55;5.47;;;;;;;24.38;50.90;97868.94;1786810;79;27533;-89
2022/04/23 08:43:12;;;;;;;6.92;4.78;;;;;;;24.38;51.11;97865.50;1787262;80;25629;-90
2022/04/23 08:45:39;;;;;;;7.55;5.03;;;;;;;24.40;51.18;97863.08;1787139;80;25649;-91
2022/04/23 08:48:09;;;;;;;7.67;5.17;;;;;;;24.40;50.99;97867.28;1787170;80;26475;-90
2022/04/23 08:50:36;;;;;;;8.58;5.45;;;;;;;24.35;49.04;97866.36;1787516;79;25402;-90
2022/04/23 08:53:08;;;;;;;8.35;5.65;;;;;;;24.28;48.34;97864.50;1787210;80;27595;-90
2022/04/23 08:55:34;;;;;;;7.55;5.47;;;;;;;24.21;45.87;97859.63;1786965;80;25656;-90
2022/04/23 08:58:01;;;;;;;6.90;5.35;;;;;;;24.10;44.28;97868.17;1787035;79;25666;-90
2022/04/23 09:00:27;;;;;;;7.87;5.80;;;;;;;23.93;42.41;97856.85;1787214;80;25733;-90
2022/04/23 09:02:56;;;;;;;8.65;5.80;;;;;;;23.76;41.27;97855.92;1787228;80;25580;-90
2022/04/23 09:05:25;;;;;;;8.10;5.40;;;;;;;23.67;41.96;97860.05;1787011;80;26615;-90
2022/04/23 09:07:56;;;;;;;7.12;4.95;;;;;;;23.72;42.08;97852.39;1786372;80;25435;-91
2022/04/23 09:10:44;;;;;;;6.85;5.05;;;;;;;23.74;42.70;97853.55;1786795;80;25463;-91
2022/04/23 09:13:11;;;;;;;6.80;4.83;;;;;;;23.79;43.11;97858.67;1787083;80;26530;-91
2022/04/23 09:24:08;;;;;;;7.08;4.58;;;;;;;23.87;44.70;97852.95;1784691;80;25452;-91
2022/04/23 09:26:35;;;;;;;7.50;4.47;;;;;;;23.87;45.06;97851.55;1786749;80;25742;-91
2022/04/23 09:29:20;;;;;;;6.12;4.22;;;;;;;23.84;45.34;97849.01;1787340;80;25448;-91
2022/04/23 09:31:46;;;;;;;9.55;4.67;;;;;;;23.84;45.60;97846.80;1786860;80;27523;-91
2022/04/23 09:34:18;;;;;;;10.05;4.70;;;;;;;23.84;45.83;97846.80;1787117;80;25621;-91
2022/04/23 09:36:57;;;;;;;5.95;4.22;;;;;;;23.84;46.03;97840.61;1787057;80;25435;-91
2022/04/23 09:39:34;;;;;;;6.72;4.60;;;;;;;23.85;46.24;97839.39;1786154;80;25686;-91
2022/04/23 09:42:30;;;;;;;7.35;4.42;;;;;;;23.86;46.52;97847.95;1786835;80;25658;-91
2022/04/23 09:44:56;;;;;;;7.45;4.55;;;;;;;23.85;46.71;97844.98;1786834;80;27428;-91
2022/04/23 09:47:31;;;;;;;7.00;4.47;;;;;;;23.84;46.96;97841.21;1787114;80;25835;-91
2022/04/23 09:49:58;;;;;;;6.85;4.33;;;;;;;23.84;47.17;97846.20;1787219;80;25481;-91
2022/04/23 09:52:31;;;;;;;5.58;4.17;;;;;;;23.86;47.43;97841.59;1787121;80;25694;-90
2022/04/23 09:55:02;;;;;;;7.28;4.60;;;;;;;23.84;47.64;97844.01;1787152;80;25411;-90
2022/04/23 09:57:30;;;;;;;7.97;4.53;;;;;;;23.83;47.83;97847.41;1786554;80;26061;-90
2022/04/23 09:59:56;;;;;;;5.78;4.55;;;;;;;23.83;47.95;97842.44;1786755;80;25638;-91
2022/04/23 10:02:24;;;;;;;6.25;4.62;;;;;;;23.83;48.13;97839.64;1787211;80;25641;-90
2022/04/23 10:04:54;;;;;;;6.83;4.10;;;;;;;23.81;48.25;97838.66;1787017;80;25838;-91
2022/04/23 10:07:24;;;;;;;6.70;4.15;;;;;;;23.83;48.35;97839.64;1786899;80;25721;-90
2022/04/23 10:09:51;;;;;;;7.72;4.40;;;;;;;23.82;48.46;97830.45;1786752;79;27005;-90
2022/04/23 10:12:19;;;;;;;6.85;3.90;;;;;;;23.81;48.54;97830.27;1786997;79;25582;-90
2022/04/23 10:14:50;;;;;;;5.70;4.15;;;;;;;23.81;48.57;97838.66;1787285;80;25597;-91
2022/04/23 10:17:20;;;;;;;6.03;4.28;;;;;;;23.81;48.67;97842.86;1784703;79;25681;-91
2022/04/23 10:19:48;;;;;;;5.97;4.12;;;;;;;23.81;48.71;97841.46;1783691;80;25533;-91
2022/04/23 10:22:31;;;;;;;5.78;3.67;;;;;;;23.80;48.75;97839.27;1786760;80;27515;-91
2022/04/23 10:25:46;;;;;;;5.40;3.72;;;;;;;23.79;48.83;97846.08;1758024;80;25499;-90
2022/04/23 10:28:18;;;;;;;5.35;3.90;;;;;;;23.80;48.88;97838.46;1785520;80;25758;-89
2022/04/23 10:30:46;;;;;;;5.65;3.83;;;;;;;23.79;48.94;97839.09;1787312;80;25622;-91
2022/04/23 10:33:28;;;;;;;5.65;4.00;;;;;;;23.77;48.98;97833.71;1787065;80;25393;-89
2022/04/23 10:36:09;;;;;;;7.08;4.03;;;;;;;23.77;49.01;97835.11;1786937;80;27311;-91
2022/04/23 10:38:38;;;;;;;6.30;3.90;;;;;;;23.76;49.05;97837.14;1786831;79;25447;-90
2022/04/23 10:41:06;;;;;;;6.17;4.00;;;;;;;23.77;49.08;97837.91;1786828;79;25898;-89
2022/04/23 10:43:32;;;;;;;5.78;3.55;;;;;;;23.76;49.14;97841.33;1787083;80;26474;-91
2022/04/23 10:46:00;;;;;;;7.50;3.70;;;;;;;23.77;49.13;97837.91;1787060;80;25420;-90
2022/04/23 10:48:29;;;;;;;7.55;3.90;;;;;;;23.76;49.08;97844.73;1786702;80;27400;-90
2022/04/23 10:51:16;;;;;;;4.90;3.75;;;;;;;23.77;49.13;97841.51;1787345;80;25631;-91
2022/04/23 10:53:48;;;;;;;5.30;3.42;;;;;;;23.78;49.10;97836.72;1786804;80;25605;-88
2022/04/23 10:56:20;;;;;;;5.25;3.67;;;;;;;23.79;49.08;97843.28;1787110;80;25780;-90
2022/04/23 10:58:47;;;;;;;5.42;3.52;;;;;;;23.80;49.21;97838.46;1786826;80;25440;-90
2022/04/23 11:01:27;;;;;;;7.35;4.28;;;;;;;23.79;49.62;97836.89;1786814;79;27389;-90
2022/04/23 11:04:08;;;;;;;5.83;3.70;;;;;;;23.79;49.82;97842.48;1786912;80;25553;-90
2022/04/23 11:12:39;;;;;;;6.85;4.37;;;;;;;23.73;49.89;97833.78;1787104;80;25557;-90
2022/04/23 11:15:19;;;;;;;7.33;4.10;;;;;;;23.70;49.54;97836.03;1786867;80;27396;-90
2022/04/23 11:17:53;;;;;;;6.12;4.00;;;;;;;23.67;48.82;97834.88;1786518;80;25797;-91
2022/04/23 11:20:32;;;;;;;7.08;4.45;;;;;;;23.65;48.35;97837.30;1787194;80;25489;-90
2022/04/23 11:23:01;;;;;;;6.20;4.05;;;;;;;23.63;47.75;97835.52;1787174;80;25665;-91
2022/04/23 11:25:30;;;;;;;6.50;3.80;;;;;;;23.63;47.52;97836.15;1783497;80;25580;-90
2022/04/23 11:28:01;;;;;;;5.45;4.25;;;;;;;23.63;47.37;97839.72;1786791;79;28194;-89
2022/04/23 11:30:30;;;;;;;6.83;4.03;;;;;;;23.64;47.37;97837.72;1758557;80;25812;-90
2022/04/23 11:33:12;;;;;;;6.10;3.80;;;;;;;23.64;47.34;97833.53;1787060;80;25682;-90
2022/04/23 11:35:39;;;;;;;4.85;3.80;;;;;;;23.65;47.38;97837.90;1786206;80;25752;-89
2022/04/23 11:38:08;;;;;;;7.37;3.95;;;;;;;23.64;47.43;97837.72;1787029;79;25613;-90
2022/04/23 11:40:35;;;;;;;6.42;4.22;;;;;;;23.62;47.45;97839.55;1785527;79;27378;-89
2022/04/23 11:43:02;;;;;;;4.97;3.55;;;;;;;23.60;47.51;97832.17;1773550;78;25657;-89
2022/04/23 11:45:29;;;;;;;7.05;3.80;;;;;;;23.61;47.56;97836.58;1769520;81;25609;-89
2022/04/23 11:47:55;;;;;;;5.60;3.47;;;;;;;23.60;47.67;97832.80;1769643;81;25731;-88
2022/04/23 11:50:22;;;;;;;4.55;3.67;;;;;;;23.59;47.76;97832.00;1769634;81;25709;-90
2022/04/23 11:53:05;;;;;;;7.25;3.45;;;;;;;23.58;47.88;97831.02;1769722;81;27365;-90
2022/04/23 11:55:32;;;;;;;4.47;3.70;;;;;;;23.59;47.97;97828.41;1769283;81;25872;-90
2022/04/23 11:58:01;;;;;;;5.40;3.62;;;;;;;23.57;48.06;97826.03;1769538;81;25424;-90
2022/04/23 12:00:32;;;;;;;5.20;3.50;;;;;;;23.58;48.16;97828.23;1769595;80;25686;-91